Flight Track Log - Related Links

Times and Time Zones

All times are in EST time to prevent confusion due to time zone crossing. See the TRS1537 flight status page for this flight to view local times or setup timezone preferences in your user account.

Time Position Orientation Groundspeed Altitude Reporting Facility
EST Latitude Longitude Course Direction KTS MPH feet Rate Location/Type
Tue 09:28:23 AM 33.6500 -84.3667 270° West 194 223 2,900  Level Atlanta TRACON
Tue 09:29:23 AM 33.6833 -84.2833 64° Northeast 253 291 4,300 1,737 Climbing Atlanta TRACON
Tue 09:30:17 AM 33.7500 -84.2833 360° North 264 304 6,200 1,947 Climbing Atlanta TRACON
Tue 09:31:17 AM 33.8167 -84.3167 337° Northwest 276 318 8,000 1,727 Climbing Atlanta TRACON
Tue 09:33:00 AM 33.8001 -84.4650 270° West  Level FlightAware Approximate
Tue 09:33:35 AM 33.8100 -84.5239 268° West 276 318 11,900  Level Atlanta Center
Tue 09:34:35 AM 33.7844 -84.6261 253° West 305 351 13,100 1,450 Climbing Atlanta Center
Tue 09:35:35 AM 33.7278 -84.7158 233° Southwest 321 369 14,800 1,700 Climbing Atlanta Center
Tue 09:36:35 AM 33.6686 -84.8075 232° Southwest 342 394 16,500 1,700 Climbing Atlanta Center
Tue 09:37:35 AM 33.6242 -84.9119 243° Southwest 355 409 18,200 1,400 Climbing Atlanta Center
Tue 09:38:35 AM 33.5858 -85.0214 247° West 350 403 19,300 1,100 Climbing Atlanta Center
Tue 09:39:35 AM 33.5494 -85.1181 246° West 362 417 20,400 1,350 Climbing Atlanta Center
Tue 09:40:35 AM 33.5108 -85.2322 248° West 367 422 22,000 1,500 Climbing Atlanta Center
Tue 09:41:35 AM 33.4928 -85.3567 260° West 367 422 23,400 1,300 Climbing Atlanta Center
Tue 09:42:35 AM 33.4750 -85.4758 260° West 372 428 24,600 1,150 Climbing Atlanta Center
Tue 09:43:35 AM 33.4567 -85.6025 260° West 379 436 25,700 1,050 Climbing Atlanta Center
Tue 09:44:35 AM 33.4342 -85.7314 258° West 384 442 26,700 1,350 Climbing Atlanta Center
Tue 09:45:35 AM 33.4092 -85.8628 257° West 386 444 28,400 1,650 Climbing Atlanta Center
Tue 09:46:35 AM 33.3931 -85.9719 260° West 379 436 30,000 1,350 Climbing Atlanta Center
Tue 09:47:35 AM 33.3744 -86.0886 259° West 372 428 31,100 1,000 Climbing Atlanta Center
Tue 09:48:35 AM 33.3558 -86.2025 259° West 366 421 32,000 450 Climbing Atlanta Center
Tue 09:49:35 AM 33.3369 -86.3214 259° West 366 421 32,000  Level Atlanta Center
Tue 09:50:35 AM 33.3136 -86.4475 258° West 366 421 32,000  Level Atlanta Center
Tue 09:51:35 AM 33.2989 -86.5514 260° West 361 415 32,000  Level Atlanta Center
Tue 09:52:35 AM 33.2800 -86.6678 259° West 367 422 32,000  Level Atlanta Center
Tue 09:53:35 AM 33.2606 -86.7839 259° West 360 414 32,000  Level Atlanta Center
Tue 09:54:35 AM 33.2392 -86.9025 258° West 360 414 32,000  Level Atlanta Center
Tue 09:55:35 AM 33.2011 -87.0106 247° West 359 413 32,000  Level Atlanta Center
Tue 09:56:35 AM 33.1481 -87.1278 242° Southwest 364 419 32,000  Level Atlanta Center
Tue 09:57:35 AM 33.0994 -87.2350 242° Southwest 364 419 32,000  Level Atlanta Center
Tue 09:58:35 AM 33.0508 -87.3400 241° Southwest 364 419 32,000  Level Atlanta Center
Tue 10:00:07 AM 32.9850 -87.4906 242° Southwest 364 419 32,000  Level Memphis Center
Tue 10:01:09 AM 32.9369 -87.5956 241° Southwest 362 417 32,000  Level Memphis Center
Tue 10:02:11 AM 32.8883 -87.7014 241° Southwest 363 418 32,000  Level Memphis Center
Tue 10:03:12 AM 32.8317 -87.8289 242° Southwest 363 418 32,000  Level Memphis Center
Tue 10:04:14 AM 32.7897 -87.9175 241° Southwest 363 418 32,000  Level Memphis Center
Tue 10:05:16 AM 32.7475 -88.0533 250° West 366 421 32,000  Level Memphis Center
Tue 10:06:17 AM 32.7114 -88.1653 249° West 365 420 32,000  Level Memphis Center
Tue 10:07:19 AM 32.6769 -88.2767 250° West 363 418 32,000  Level Memphis Center
Tue 10:08:21 AM 32.6422 -88.3894 250° West 364 419 32,000  Level Memphis Center
Tue 10:09:22 AM 32.6069 -88.4997 249° West 362 417 32,000  Level Memphis Center
Tue 10:10:24 AM 32.5703 -88.6128 249° West 364 419 32,000  Level Memphis Center
Tue 10:11:25 AM 32.5344 -88.7258 249° West 366 421 32,000  Level Memphis Center
Tue 10:12:27 AM 32.4919 -88.8592 249° West 364 419 32,000  Level Memphis Center
Tue 10:13:29 AM 32.4567 -88.9714 250° West 364 419 32,000  Level Memphis Center
Tue 10:14:30 AM 32.4192 -89.0828 248° West 364 419 32,000  Level Memphis Center
Tue 10:15:32 AM 32.3839 -89.1953 250° West 364 419 32,000  Level Memphis Center
Tue 10:16:33 AM 32.3469 -89.3072 249° West 365 420 32,000  Level Memphis Center
Tue 10:17:35 AM 32.3106 -89.4192 249° West 365 420 32,000  Level Memphis Center
Tue 10:18:37 AM 32.2739 -89.5328 249° West 367 422 32,000  Level Memphis Center
Tue 10:19:38 AM 32.2369 -89.6461 249° West 369 425 32,000  Level Memphis Center
Tue 10:20:40 AM 32.1919 -89.7811 249° West 368 423 32,000  Level Memphis Center
Tue 10:21:41 AM 32.1539 -89.8944 248° West 369 425 32,000  Level Memphis Center
Tue 10:22:43 AM 32.1158 -90.0089 249° West 372 428 32,000  Level Memphis Center
Tue 10:23:45 AM 32.0786 -90.1197 248° West 370 426 32,000  Level Memphis Center
Tue 10:24:46 AM 32.0417 -90.2325 249° West 369 425 32,000  Level Memphis Center
Tue 10:25:48 AM 32.0047 -90.3444 249° West 368 423 32,000  Level Memphis Center
Tue 10:26:49 AM 31.9667 -90.4572 248° West 369 425 32,000  Level Memphis Center
Tue 10:27:51 AM 31.9206 -90.5931 248° West 372 428 32,000  Level Memphis Center
Tue 10:28:52 AM 31.8825 -90.7064 248° West 373 429 32,000  Level Memphis Center
Tue 10:29:54 AM 31.8439 -90.8183 248° West 372 428 32,000  Level Memphis Center
Tue 10:30:56 AM 31.8053 -90.9300 248° West 371 427 32,000  Level Memphis Center
Tue 10:31:57 AM 31.7658 -91.0417 247° West 371 427 32,000  Level Memphis Center
Tue 10:32:59 AM 31.7283 -91.1550 249° West 372 428 32,000  Level Memphis Center
Tue 10:34:00 AM 31.6892 -91.2683 248° West 374 430 32,000  Level Memphis Center
Tue 10:35:02 AM 31.6503 -91.3794 248° West 373 429 32,000  Level Memphis Center
Tue 10:36:03 AM 31.6044 -91.5150 248° West 373 429 32,000  Level Memphis Center
Tue 10:37:05 AM 31.5650 -91.6278 248° West 374 430 32,000  Level Memphis Center
Tue 10:38:28 AM 31.5136 -91.7733 248° West 374 430 32,000  Level Houston Center
Tue 10:39:30 AM 31.4742 -91.8858 248° West 374 430 32,000  Level Houston Center
Tue 10:40:31 AM 31.4344 -91.9983 248° West 374 430 32,000  Level Houston Center
Tue 10:41:33 AM 31.3869 -92.1336 248° West 375 432 32,000  Level Houston Center
Tue 10:42:34 AM 31.3467 -92.2458 247° West 374 430 32,000  Level Houston Center
Tue 10:43:36 AM 31.3067 -92.3594 248° West 376 433 32,000  Level Houston Center
Tue 10:44:38 AM 31.2664 -92.4739 248° West 379 436 32,000  Level Houston Center
Tue 10:45:39 AM 31.2253 -92.5864 247° West 379 436 32,000  Level Houston Center
Tue 10:46:41 AM 31.1811 -92.7081 247° West 379 436 32,000  Level Houston Center
Tue 10:47:42 AM 31.1392 -92.8211 247° West 378 435 32,000  Level Houston Center
Tue 10:48:44 AM 31.0972 -92.9344 247° West 381 438 32,000  Level Houston Center
Tue 10:49:46 AM 31.0550 -93.0472 246° West 380 437 32,000  Level Houston Center
Tue 10:50:47 AM 31.0136 -93.1603 247° West 380 437 32,000  Level Houston Center
Tue 10:51:49 AM 30.9703 -93.2739 246° West 384 442 32,000  Level Houston Center
Tue 10:52:50 AM 30.9197 -93.4092 246° West 380 437 32,000  Level Houston Center
Tue 10:53:52 AM 30.8764 -93.5225 246° West 384 442 32,000  Level Houston Center
Tue 10:54:53 AM 30.8358 -93.6289 246° West 379 436 32,000  Level Houston Center
Tue 10:55:55 AM 30.7939 -93.7425 247° West 382 440 32,000  Level Houston Center
Tue 10:56:57 AM 30.7508 -93.8544 246° West 380 437 32,000  Level Houston Center
Tue 10:57:58 AM 30.7081 -93.9686 246° West 383 441 32,000 -1,415 Level Houston Center
Tue 10:59:00 AM 30.6558 -94.1025 246° West 378 435 29,100 -2,758 Descending Houston Center
Tue 11:00:02 AM 30.6119 -94.2144 246° West 379 436 26,300 -2,694 Descending Houston Center
Tue 11:00:38 AM 30.5889 -94.2767 247° West 372 428 24,700 -2,459 Descending Houston Center
Tue 11:01:03 AM 30.5717 -94.3214 246° West 365 420 23,800 -2,354 Descending Houston Center
Tue 11:01:57 AM 30.5350 -94.4125 245° Southwest 337 388 21,600 -2,323 Descending Houston Center
Tue 11:02:05 AM 30.5328 -94.4219 255° West 348 400 21,400 -2,164 Descending Houston Center
Tue 11:02:58 AM 30.5003 -94.5067 246° West 316 364 19,400 -2,164 Descending Houston Center
Tue 11:03:06 AM 30.4967 -94.5156 245° Southwest 328 377 19,200 -2,229 Descending Houston Center
Tue 11:04:08 AM 30.4369 -94.6047 232° Southwest 324 373 16,800 -2,355 Descending Houston Center
Tue 11:04:53 AM 30.3925 -94.6758 234° Southwest 338 389 15,000 -2,129 Descending Houston Center
Tue 11:05:10 AM 30.3825 -94.6925 235° Southwest 335 386 14,600 -1,254 Descending Houston Center
Tue 11:06:00 AM 30.3303 -94.7711 232° Southwest 332 382 13,600 -1,180 Descending Houston Center
Tue 11:06:11 AM 30.3269 -94.7786 243° Southwest 334 384 13,400 -448 Descending Houston Center
Tue 11:07:07 AM 30.2681 -94.8661 232° Southwest 331 381 13,100 -484 Descending Houston Center
Tue 11:07:13 AM 30.2717 -94.8625 41° Northeast 331 381 12,900 -295 Descending Houston Center
Tue 11:08:08 AM 30.2131 -94.9528 233° Southwest 331 381 12,800 -194 Descending Houston Center
Tue 11:08:15 AM 30.2172 -94.9478 46° Northeast 331 381 12,700 -2,459 Descending Houston Center
Tue 11:09:09 AM 30.1583 -95.0394 233° Southwest 324 373 10,300 -2,361 Descending Houston Center
Tue 11:09:16 AM 30.1628 -95.0317 57° Northeast 328 377 10,300 -279 Level Houston Center
Tue 11:09:52 AM 30.1136 -95.0789 220° Southwest 298 343 10,100 -286 Descending Houston Center
Tue 11:10:19 AM 30.0792 -95.0931 200° South 305 351 10,000  Descending Houston Center
Tue 11:10:58 AM 30.0250 -95.1186 202° Southwest 303 349 10,100  Climbing Houston Center
Tue 11:11:19 AM 30.0014 -95.1278 199° South 302 348 10,000 -98 Descending Houston Center
Tue 11:11:59 AM 29.9461 -95.1525 201° Southwest 292 336 10,000 -194 Level Houston Center
Tue 11:12:21 AM 29.9264 -95.1608 200° South 286 329 9,800 -1,377 Descending Houston Center
Tue 11:13:00 AM 29.8794 -95.1800 199° South 248 285 8,600 -1,742 Descending Houston Center
Tue 11:13:23 AM 29.8611 -95.1889 203° Southwest 253 291 8,000 -492 Descending Houston Center
Tue 11:14:01 AM 29.8108 -95.2100 200° South 254 292 8,100 -98 Climbing Houston Center
Tue 11:14:24 AM 29.7950 -95.2172 202° Southwest 254 292 7,900 -1,475 Descending Houston Center
Tue 11:15:02 AM 29.7436 -95.2328 195° South 257 296 6,600 -1,742 Descending Houston Center
Tue 11:15:26 AM 29.7256 -95.2328 180° South 263 303 6,100 -492 Descending Houston Center
Tue 11:16:03 AM 29.6683 -95.2369 184° South 269 310 6,100 -98 Level Houston Center
Tue 11:16:27 AM 29.6383 -95.2369 180° South 267 307 6,000  Descending Houston Center
Tue 11:17:04 AM 29.5931 -95.2389 182° South 267 307 6,100 -97 Climbing Houston Center
Tue 11:17:29 AM 29.5669 -95.2408 184° South 267 307 5,900 -100 Descending Houston Center
Tue 11:18:04 AM 29.5350 -95.2700 218° Southwest 211 243 6,000 -290 Climbing Houston Center
Tue 11:18:31 AM 29.5208 -95.2853 223° Southwest 223 257 5,600 -1,377 Descending Houston Center
Tue 11:19:05 AM 29.4911 -95.3186 224° Southwest 211 243 4,600 -1,574 Descending Houston Center
Tue 11:19:32 AM 29.4769 -95.3319 219° Southwest 213 245 4,000 -1,233 Descending Houston Center
Tue 11:20:18 AM 29.4550 -95.3828 244° Southwest 211 243 3,100 -968 Descending Houston Center
Tue 11:20:34 AM 29.4581 -95.3908 294° West 212 244 3,000 -885 Descending Houston Center
Tue 11:21:19 AM 29.4911 -95.4097 334° Northwest 171 197 2,200 -984 Descending Houston Center
Tue 11:21:35 AM 29.4986 -95.4086 North 189 217 2,000 -109 Descending Houston Center
Tue 11:22:14 AM 29.5322 -95.4000 13° North 155 178 2,100  Climbing Houston Center
Tue 11:22:37 AM 29.5394 -95.3942 35° Northeast 165 190 2,000 -214 Descending Houston Center
Tue 11:23:38 AM 29.5761 -95.3547 43° Northeast 155 178 1,800 -343 Descending Houston Center
Tue 11:24:22 AM 29.5956 -95.3347 42° Northeast 117 135 1,400 -677 Descending Houston Center
Tue 11:24:40 AM 29.6019 -95.3258 50° Northeast 142 163 1,100 -689 Descending Houston Center
Tue 11:25:23 AM 29.6183 -95.3081 43° Northeast 122 140 700 -677 Descending Houston Center
Tue 11:25:42 AM 29.6258 -95.3000 43° Northeast 128 147 400 -947 Descending Houston Center

Login

Don't have an account? Register now (free) for customized features, flight alerts, and more!